createdAt,value
2018-05-17T00:01:18.739Z,15.20
2018-05-17T00:03:48.484Z,15.10
2018-05-17T00:06:17.942Z,15.10
2018-05-17T00:08:48.113Z,15.00
2018-05-17T00:11:18.234Z,15.00
2018-05-17T00:13:47.989Z,15.00
2018-05-17T00:16:18.224Z,15.00
2018-05-17T00:18:49.648Z,15.00
2018-05-17T00:21:25.919Z,14.90
2018-05-17T00:23:56.455Z,15.00
2018-05-17T00:26:26.687Z,15.00
2018-05-17T00:28:56.442Z,15.00
2018-05-17T00:31:26.536Z,15.00
2018-05-17T00:33:56.631Z,15.00
2018-05-17T00:36:27.904Z,14.90
2018-05-17T00:38:58.818Z,15.00
2018-05-17T00:41:29.454Z,15.00
2018-05-17T00:44:00.899Z,15.00
2018-05-17T00:46:31.636Z,15.00
2018-05-17T00:49:02.246Z,15.00
2018-05-17T00:51:31.986Z,17.80
2018-05-17T00:54:02.104Z,15.00
2018-05-17T00:56:32.898Z,15.10
2018-05-17T00:59:03.976Z,15.10
2018-05-17T01:01:37.169Z,15.10
2018-05-17T01:04:08.453Z,15.10
2018-05-17T01:06:39.552Z,15.10
2018-05-17T01:09:09.840Z,15.10
2018-05-17T01:11:40.595Z,15.10
2018-05-17T01:14:11.360Z,15.10
2018-05-17T01:16:41.624Z,15.00
2018-05-17T01:19:12.612Z,15.10
2018-05-17T01:21:43.369Z,15.00
2018-05-17T01:24:13.898Z,15.00
2018-05-17T01:26:55.982Z,10.90
2018-05-17T01:29:37.007Z,15.00
2018-05-17T01:32:11.464Z,15.10
2018-05-17T01:34:41.622Z,15.00
2018-05-17T01:37:23.919Z,15.00
2018-05-17T01:39:54.640Z,15.00
2018-05-17T01:42:25.608Z,15.00
2018-05-17T01:44:55.720Z,15.00
2018-05-17T01:47:26.044Z,14.90
2018-05-17T01:49:56.256Z,14.80
2018-05-17T01:52:26.886Z,14.80
2018-05-17T01:54:58.439Z,14.70
2018-05-17T01:57:30.488Z,14.70
2018-05-17T02:00:01.236Z,14.70
2018-05-17T02:02:32.121Z,14.60
2018-05-17T02:05:04.415Z,14.50
2018-05-17T02:07:34.837Z,14.50
2018-05-17T02:10:05.096Z,14.40
2018-05-17T02:12:35.211Z,14.40
2018-05-17T02:15:05.356Z,14.40
2018-05-17T02:17:35.483Z,14.40
2018-05-17T02:20:05.252Z,14.30
2018-05-17T02:22:37.189Z,14.30
2018-05-17T02:25:07.563Z,14.30
2018-05-17T02:27:38.603Z,14.10
2018-05-17T02:30:11.060Z,14.20
2018-05-17T02:32:41.351Z,14.20
2018-05-17T02:35:11.427Z,14.20
2018-05-17T02:37:46.466Z,14.10
2018-05-17T02:40:16.887Z,14.00
2018-05-17T02:42:48.842Z,13.90
2018-05-17T02:45:19.157Z,13.90
2018-05-17T02:47:49.403Z,13.80
2018-05-17T02:50:20.241Z,13.70
2018-05-17T02:52:50.052Z,13.70
2018-05-17T02:55:20.248Z,13.70
2018-05-17T02:57:50.497Z,13.60
2018-05-17T03:00:20.278Z,13.70
2018-05-17T03:02:52.659Z,13.70
2018-05-17T03:05:23.155Z,13.60
2018-05-17T03:07:53.274Z,13.60
2018-05-17T03:10:28.976Z,13.60
2018-05-17T03:12:59.864Z,13.50
2018-05-17T03:15:30.192Z,13.50
2018-05-17T03:18:00.362Z,13.40
2018-05-17T03:20:30.122Z,13.40
2018-05-17T03:23:00.238Z,13.40
2018-05-17T03:25:29.977Z,13.40
2018-05-17T03:28:00.124Z,13.40
2018-05-17T03:30:30.480Z,13.40
2018-05-17T03:33:00.735Z,13.30
2018-05-17T03:35:30.876Z,13.30
2018-05-17T03:38:01.107Z,13.30
2018-05-17T03:40:31.323Z,13.30
2018-05-17T03:43:01.566Z,13.30
2018-05-17T03:45:32.555Z,13.20
2018-05-17T03:48:02.720Z,13.20
2018-05-17T03:50:35.405Z,13.00
2018-05-17T03:53:07.364Z,13.10
2018-05-17T03:55:37.799Z,13.10
2018-05-17T03:58:08.064Z,13.00
2018-05-17T04:00:47.028Z,12.90
2018-05-17T04:05:33.262Z,13.00
2018-05-17T04:08:03.433Z,12.70
2018-05-17T04:10:33.541Z,12.80
2018-05-17T04:13:03.700Z,12.90
2018-05-17T04:15:34.019Z,12.80
2018-05-17T04:18:04.475Z,12.90
2018-05-17T04:20:34.272Z,12.90
2018-05-17T04:23:04.517Z,8.80
2018-05-17T04:25:34.668Z,13.00
2018-05-17T04:28:04.901Z,13.00
2018-05-17T04:30:35.508Z,13.00
2018-05-17T04:33:06.167Z,12.80
2018-05-17T04:35:36.570Z,12.90
2018-05-17T04:38:06.828Z,12.90
2018-05-17T04:40:37.285Z,12.90
2018-05-17T04:43:07.518Z,12.80
2018-05-17T04:45:37.759Z,12.70
2018-05-17T04:48:07.940Z,12.70
2018-05-17T04:50:38.084Z,12.70
2018-05-17T04:53:08.512Z,12.70
2018-05-17T04:55:38.634Z,12.70
2018-05-17T04:58:08.752Z,12.70
2018-05-17T05:00:44.803Z,12.70
2018-05-17T05:03:15.215Z,12.70
2018-05-17T05:05:45.369Z,12.60
2018-05-17T05:08:15.616Z,12.60
2018-05-17T05:10:45.899Z,12.50
2018-05-17T05:13:16.312Z,12.50
2018-05-17T05:15:46.546Z,12.50
2018-05-17T05:18:16.874Z,12.50
2018-05-17T05:20:47.006Z,12.50
2018-05-17T05:23:17.471Z,12.60
2018-05-17T05:25:47.702Z,12.60
2018-05-17T05:28:18.322Z,12.60
2018-05-17T05:30:48.507Z,12.60
2018-05-17T05:33:19.257Z,12.50
2018-05-17T05:35:49.415Z,12.50
2018-05-17T05:38:19.806Z,12.40
2018-05-17T05:40:50.108Z,12.50
2018-05-17T05:43:20.353Z,12.40
2018-05-17T05:45:52.466Z,12.50
2018-05-17T05:48:23.569Z,12.50
2018-05-17T05:50:54.301Z,12.50
2018-05-17T05:53:25.470Z,12.50
2018-05-17T05:55:55.613Z,12.50
2018-05-17T06:00:57.882Z,12.50
2018-05-17T06:03:29.797Z,12.50
2018-05-17T06:06:00.264Z,12.50
2018-05-17T06:08:30.810Z,12.50
2018-05-17T06:11:00.916Z,12.50
2018-05-17T06:13:32.448Z,12.50
2018-05-17T06:16:02.574Z,12.60
2018-05-17T06:18:32.732Z,12.60
2018-05-17T06:21:02.879Z,12.70
2018-05-17T06:23:33.359Z,12.70
2018-05-17T06:26:03.424Z,13.00
2018-05-17T06:28:33.189Z,13.00
2018-05-17T06:31:03.342Z,13.10
2018-05-17T06:33:33.588Z,13.30
2018-05-17T06:36:04.842Z,13.70
2018-05-17T06:38:35.144Z,14.10
2018-05-17T06:41:05.493Z,14.90
2018-05-17T06:43:35.893Z,16.40
2018-05-17T06:46:05.932Z,17.00
2018-05-17T06:48:37.668Z,17.10
2018-05-17T06:51:09.491Z,18.50
2018-05-17T06:53:43.564Z,22.90
2018-05-17T06:56:13.346Z,20.10
2018-05-17T06:58:43.522Z,21.00
2018-05-17T07:01:14.520Z,20.80
2018-05-17T07:03:45.256Z,19.70
2018-05-17T07:06:15.985Z,20.00
2018-05-17T07:08:48.931Z,21.60
2018-05-17T07:11:20.043Z,24.40
2018-05-17T07:13:50.211Z,27.00
2018-05-17T07:16:21.430Z,28.70
2018-05-17T07:18:53.533Z,29.40
2018-05-17T07:21:25.512Z,30.40
2018-05-17T07:23:55.622Z,31.90
2018-05-17T07:26:27.115Z,32.20
2018-05-17T07:28:58.140Z,32.10
2018-05-17T07:31:28.949Z,32.80
2018-05-17T07:33:59.523Z,33.20
2018-05-17T07:36:36.484Z,33.80
2018-05-17T07:39:07.847Z,33.80
2018-05-17T07:41:39.104Z,33.50
2018-05-17T07:44:31.424Z,33.70
2018-05-17T07:47:01.548Z,35.70
2018-05-17T07:49:32.079Z,34.70
2018-05-17T07:52:02.251Z,35.20
2018-05-17T07:54:31.994Z,34.70
2018-05-17T07:57:03.263Z,34.20
2018-05-17T07:59:35.405Z,34.00
2018-05-17T08:02:07.183Z,34.10
2018-05-17T08:04:37.422Z,34.30
2018-05-17T08:07:07.887Z,34.20
2018-05-17T08:09:39.000Z,33.70
2018-05-17T08:12:09.351Z,33.20
2018-05-17T08:14:40.001Z,31.80
2018-05-17T08:17:11.104Z,30.40
2018-05-17T08:19:41.440Z,29.30
2018-05-17T08:22:15.275Z,28.30
2018-05-17T08:24:45.739Z,28.00
2018-05-17T08:27:15.837Z,27.70
2018-05-17T08:29:46.026Z,27.70
2018-05-17T08:32:16.201Z,28.80
2018-05-17T08:34:46.300Z,30.30
2018-05-17T08:37:16.492Z,31.90
2018-05-17T08:39:46.559Z,32.60
2018-05-17T08:42:16.699Z,32.90
2018-05-17T08:44:46.448Z,33.20
2018-05-17T08:47:17.733Z,32.80
2018-05-17T08:49:47.952Z,32.40
2018-05-17T08:52:18.125Z,32.80
2018-05-17T08:54:48.772Z,33.00
2018-05-17T08:57:19.205Z,32.00
2018-05-17T08:59:51.156Z,31.20
2018-05-17T09:02:26.924Z,31.40
2018-05-17T09:04:58.165Z,31.30
2018-05-17T09:07:29.314Z,31.40
2018-05-17T09:10:00.510Z,31.10
2018-05-17T09:12:30.661Z,29.90
2018-05-17T09:20:01.952Z,27.20
2018-05-17T09:22:34.116Z,26.50
2018-05-17T09:25:04.204Z,26.40
2018-05-17T09:27:36.660Z,26.10
2018-05-17T09:30:07.387Z,26.00
2018-05-17T09:32:38.076Z,26.30
2018-05-17T09:35:09.075Z,24.30
2018-05-17T09:37:38.967Z,26.30
2018-05-17T09:40:11.170Z,26.30
2018-05-17T09:42:41.430Z,26.40
2018-05-17T09:45:11.614Z,26.20
2018-05-17T09:47:42.156Z,26.60
2018-05-17T09:50:13.282Z,27.20
2018-05-17T09:52:44.728Z,27.20
2018-05-17T09:55:15.553Z,27.90
2018-05-17T09:57:47.445Z,29.20
2018-05-17T10:00:22.378Z,30.10
2018-05-17T10:03:00.228Z,30.80
2018-05-17T10:05:31.388Z,31.00
2018-05-17T10:08:04.960Z,30.60
2018-05-17T10:10:35.662Z,30.70
2018-05-17T10:13:05.907Z,30.90
2018-05-17T10:15:36.770Z,31.00
2018-05-17T10:18:07.232Z,31.20
2018-05-17T10:20:37.793Z,30.90
2018-05-17T10:23:08.029Z,30.40
2018-05-17T10:25:38.754Z,29.50
2018-05-17T10:28:09.376Z,29.50
2018-05-17T10:30:39.876Z,29.50
2018-05-17T10:33:10.024Z,29.40
2018-05-17T10:35:40.428Z,29.00
2018-05-17T10:38:14.207Z,28.70
2018-05-17T10:40:44.603Z,28.90
2018-05-17T10:43:15.496Z,28.70
2018-05-17T10:48:23.107Z,29.00
2018-05-17T10:50:53.545Z,29.20
2018-05-17T10:53:24.156Z,29.40
2018-05-17T10:55:54.668Z,29.20
2018-05-17T10:58:25.679Z,29.30
2018-05-17T11:00:56.773Z,28.80
2018-05-17T11:03:27.498Z,28.70
2018-05-17T11:05:58.287Z,28.70
2018-05-17T11:08:28.754Z,28.80
2018-05-17T11:10:59.404Z,29.20
2018-05-17T11:13:29.529Z,29.70
2018-05-17T11:16:01.507Z,29.50
2018-05-17T11:18:36.374Z,29.20
2018-05-17T11:21:06.288Z,29.30
2018-05-17T11:23:38.132Z,29.20
2018-05-17T11:26:16.176Z,28.80
2018-05-17T11:28:51.310Z,28.40
2018-05-17T11:31:21.770Z,28.00
2018-05-17T11:33:52.116Z,27.70
2018-05-17T11:36:22.553Z,27.50
2018-05-17T11:39:07.785Z,27.50
2018-05-17T11:41:38.333Z,27.70
2018-05-17T11:44:09.006Z,27.40
2018-05-17T11:46:39.947Z,27.40
2018-05-17T11:49:10.403Z,27.50
2018-05-17T11:51:41.276Z,32.00
2018-05-17T11:54:12.409Z,27.90
2018-05-17T11:56:43.097Z,28.00
2018-05-17T11:59:13.920Z,28.40
2018-05-17T12:01:50.538Z,28.80
2018-05-17T12:04:21.147Z,29.20
2018-05-17T12:06:51.625Z,29.10
2018-05-17T12:09:25.754Z,29.00
2018-05-17T12:11:56.232Z,28.40
2018-05-17T12:14:26.631Z,27.80
2018-05-17T12:16:56.772Z,27.00
2018-05-17T12:21:58.220Z,25.40
2018-05-17T12:31:59.934Z,24.50
2018-05-17T12:39:33.039Z,25.50
2018-05-17T12:42:03.554Z,25.60
2018-05-17T12:44:33.656Z,26.10
2018-05-17T12:47:03.824Z,26.70
2018-05-17T12:49:34.735Z,27.00
2018-05-17T12:52:05.533Z,27.30
2018-05-17T12:54:35.996Z,23.00
2018-05-17T12:57:06.413Z,27.20
2018-05-17T13:02:54.834Z,26.70
2018-05-17T13:05:25.569Z,26.30
2018-05-17T13:07:56.370Z,25.90
2018-05-17T13:10:27.927Z,25.70
2018-05-17T13:12:58.657Z,25.40
2018-05-17T13:18:01.164Z,24.90
2018-05-17T13:23:04.847Z,24.10
2018-05-17T13:30:36.998Z,24.20
2018-05-17T13:33:08.009Z,24.10
2018-05-17T13:35:38.215Z,23.70
2018-05-17T13:38:09.352Z,23.50
2018-05-17T13:40:53.864Z,23.30
2018-05-17T13:43:24.340Z,22.30
2018-05-17T13:45:54.512Z,23.40
2018-05-17T13:48:24.679Z,22.20
2018-05-17T13:50:55.135Z,23.20
2018-05-17T13:53:25.383Z,23.20
2018-05-17T13:55:55.751Z,23.40
2018-05-17T13:58:26.526Z,23.60
2018-05-17T14:00:57.617Z,23.70
2018-05-17T14:03:28.089Z,23.80
2018-05-17T14:05:59.449Z,23.90
2018-05-17T14:08:29.599Z,23.80
2018-05-17T14:10:59.970Z,23.70
2018-05-17T14:13:30.301Z,23.70
2018-05-17T14:16:09.947Z,23.70
2018-05-17T14:18:39.966Z,23.70
2018-05-17T14:21:10.345Z,23.50
2018-05-17T14:23:43.734Z,23.40
2018-05-17T14:26:14.013Z,23.30
2018-05-17T14:28:44.211Z,23.30
2018-05-17T14:31:22.045Z,23.20
2018-05-17T14:33:52.578Z,23.20
2018-05-17T14:36:25.870Z,23.10
2018-05-17T14:38:56.613Z,22.80
2018-05-17T14:41:29.077Z,22.60
2018-05-17T14:43:59.878Z,22.50
2018-05-17T14:46:30.751Z,22.30
2018-05-17T14:49:01.378Z,22.20
2018-05-17T14:51:31.806Z,22.20
2018-05-17T14:54:02.180Z,22.20
2018-05-17T14:56:32.437Z,22.20
2018-05-17T14:59:02.665Z,22.20
2018-05-17T15:01:32.980Z,23.40
2018-05-17T15:04:03.222Z,22.20
2018-05-17T15:06:33.328Z,22.20
2018-05-17T15:09:07.021Z,22.20
2018-05-17T15:11:37.253Z,22.20
2018-05-17T15:14:07.377Z,22.20
2018-05-17T15:16:37.528Z,22.30
2018-05-17T15:19:07.702Z,22.00
2018-05-17T15:21:40.300Z,22.10
2018-05-17T15:24:14.318Z,21.90
2018-05-17T15:26:44.394Z,21.80
2018-05-17T15:29:14.904Z,21.90
2018-05-17T15:31:45.465Z,21.90
2018-05-17T15:34:16.049Z,21.80
2018-05-17T15:36:47.868Z,21.70
2018-05-17T15:39:18.821Z,21.70
2018-05-17T15:41:53.720Z,21.70
2018-05-17T15:44:24.493Z,21.70
2018-05-17T15:47:12.362Z,21.70
2018-05-17T15:49:43.941Z,21.70
2018-05-17T15:52:18.416Z,18.60
2018-05-17T15:54:51.499Z,21.40
2018-05-17T15:57:23.846Z,23.20
2018-05-17T15:59:54.617Z,21.10
2018-05-17T16:02:25.094Z,21.10
2018-05-17T16:04:55.565Z,21.10
2018-05-17T16:07:25.842Z,21.10
2018-05-17T16:09:56.410Z,21.10
2018-05-17T16:12:26.726Z,21.00
2018-05-17T16:15:15.461Z,21.00
2018-05-17T16:17:45.506Z,21.00
2018-05-17T16:20:15.624Z,21.00
2018-05-17T16:22:45.795Z,21.00
2018-05-17T16:25:17.968Z,21.00
2018-05-17T16:27:48.096Z,21.00
2018-05-17T16:30:24.097Z,21.00
2018-05-17T16:32:54.730Z,21.00
2018-05-17T16:35:26.115Z,20.80
2018-05-17T16:37:57.009Z,20.60
2018-05-17T16:40:32.189Z,20.50
2018-05-17T16:43:04.618Z,20.40
2018-05-17T16:45:35.642Z,20.40
2018-05-17T16:48:07.209Z,19.10
2018-05-17T16:50:37.828Z,20.30
2018-05-17T16:53:08.982Z,20.20
2018-05-17T16:55:39.563Z,20.40
2018-05-17T16:58:10.063Z,20.30
2018-05-17T17:00:41.060Z,20.30
2018-05-17T17:03:11.708Z,20.10
2018-05-17T17:06:07.591Z,20.10
2018-05-17T17:08:38.113Z,20.00
2018-05-17T17:11:08.599Z,19.90
2018-05-17T17:13:43.470Z,19.60
2018-05-17T17:16:14.256Z,19.60
2018-05-17T17:18:45.536Z,19.40
2018-05-17T17:21:16.907Z,19.50
2018-05-17T17:23:50.930Z,19.30
2018-05-17T17:26:21.498Z,19.40
2018-05-17T17:28:51.881Z,19.40
2018-05-17T17:31:22.660Z,19.30
2018-05-17T17:33:53.730Z,19.30
2018-05-17T17:36:25.328Z,19.20
2018-05-17T17:38:55.939Z,19.20
2018-05-17T17:41:27.099Z,19.10
2018-05-17T17:43:59.455Z,19.00
2018-05-17T17:46:35.938Z,19.00
2018-05-17T17:49:06.512Z,18.80
2018-05-17T17:51:37.308Z,18.80
2018-05-17T17:54:08.200Z,18.80
2018-05-17T17:56:45.511Z,18.60
2018-05-17T17:59:16.306Z,18.50
2018-05-17T18:01:47.188Z,18.40
2018-05-17T18:04:18.607Z,18.40
2018-05-17T18:06:50.911Z,18.20
2018-05-17T18:09:21.698Z,18.20
2018-05-17T18:11:52.638Z,18.10
2018-05-17T18:14:23.468Z,17.90
2018-05-17T18:16:55.545Z,17.90
2018-05-17T18:19:25.960Z,17.90
2018-05-17T18:21:56.640Z,17.80
2018-05-17T18:24:27.430Z,17.60
2018-05-17T18:26:58.232Z,17.70
2018-05-17T18:29:29.428Z,17.50
2018-05-17T18:32:00.003Z,17.60
2018-05-17T18:34:36.536Z,17.50
2018-05-17T18:37:07.619Z,17.50
2018-05-17T18:39:38.132Z,17.60
2018-05-17T18:42:09.151Z,17.70
2018-05-17T18:44:39.663Z,17.60
2018-05-17T18:47:11.729Z,17.60
2018-05-17T18:49:42.847Z,17.60
2018-05-17T18:52:13.715Z,17.50
2018-05-17T18:54:44.380Z,17.40
2018-05-17T18:57:15.594Z,17.40
2018-05-17T18:59:46.284Z,17.50
2018-05-17T19:02:17.454Z,17.30
2018-05-17T19:04:48.977Z,17.30
2018-05-17T19:07:19.595Z,17.20
2018-05-17T19:09:50.092Z,16.90
2018-05-17T19:12:21.129Z,17.00
2018-05-17T19:14:53.429Z,14.40
2018-05-17T19:17:25.624Z,16.80
2018-05-17T19:19:56.355Z,16.70
2018-05-17T19:22:26.998Z,16.50
2018-05-17T19:24:59.917Z,16.50
2018-05-17T19:27:31.616Z,16.30
2018-05-17T19:30:02.569Z,16.20
2018-05-17T19:32:34.895Z,15.90
2018-05-17T19:35:05.368Z,15.80
2018-05-17T19:37:35.987Z,15.70
2018-05-17T19:40:06.057Z,15.60
2018-05-17T19:42:54.251Z,15.60
2018-05-17T19:45:24.729Z,15.50
2018-05-17T19:47:55.527Z,15.40
2018-05-17T19:50:26.007Z,15.30
2018-05-17T19:52:59.484Z,15.30
2018-05-17T19:55:29.983Z,15.20
2018-05-17T19:58:00.598Z,15.10
2018-05-17T20:00:31.706Z,15.10
2018-05-17T20:03:02.439Z,15.00
2018-05-17T20:05:32.880Z,15.00
2018-05-17T20:08:04.162Z,14.90
2018-05-17T20:10:35.503Z,14.90
2018-05-17T20:13:07.016Z,14.80
2018-05-17T20:15:38.530Z,14.90
2018-05-17T20:18:09.035Z,14.80
2018-05-17T20:20:39.722Z,14.80
2018-05-17T20:23:09.997Z,14.80
2018-05-17T20:25:41.039Z,14.80
2018-05-17T20:28:10.888Z,14.70
2018-05-17T20:30:41.155Z,14.70
2018-05-17T20:33:11.889Z,14.70
2018-05-17T20:35:42.058Z,14.60
2018-05-17T20:38:12.127Z,14.50
2018-05-17T20:40:42.250Z,14.50
2018-05-17T20:43:12.372Z,14.40
2018-05-17T20:45:42.564Z,14.40
2018-05-17T20:48:13.312Z,14.40
2018-05-17T20:50:43.472Z,14.30
2018-05-17T20:53:13.643Z,14.20
2018-05-17T20:55:43.790Z,14.30
2018-05-17T20:58:13.932Z,14.10
2018-05-17T21:00:44.037Z,14.20
2018-05-17T21:03:20.575Z,14.20
2018-05-17T21:05:51.652Z,14.10
2018-05-17T21:08:21.830Z,14.10
2018-05-17T21:10:52.148Z,14.20
2018-05-17T21:13:22.872Z,14.10
2018-05-17T21:15:53.973Z,14.40
2018-05-17T21:18:28.359Z,14.30
2018-05-17T21:23:32.955Z,14.20
2018-05-17T21:26:03.203Z,14.00
2018-05-17T21:28:33.363Z,14.00
2018-05-17T21:31:03.611Z,13.90
2018-05-17T21:33:33.334Z,13.80
2018-05-17T21:36:03.964Z,13.80
2018-05-17T21:38:35.091Z,13.80
2018-05-17T21:41:05.269Z,13.70
2018-05-17T21:43:35.440Z,13.70
2018-05-17T21:46:06.558Z,13.60
2018-05-17T21:48:37.807Z,13.50
2018-05-17T21:51:07.985Z,13.50
2018-05-17T21:53:39.211Z,13.50
2018-05-17T21:56:08.999Z,14.40
2018-05-17T21:58:39.185Z,13.40
2018-05-17T22:01:09.443Z,13.30
2018-05-17T22:03:40.151Z,10.90
2018-05-17T22:06:11.091Z,13.30
2018-05-17T22:08:41.336Z,13.20
2018-05-17T22:11:11.621Z,13.20
2018-05-17T22:13:41.775Z,13.10
2018-05-17T22:16:12.718Z,13.10
2018-05-17T22:18:43.260Z,13.00
2018-05-17T22:21:13.159Z,12.90
2018-05-17T22:23:43.400Z,12.90
2018-05-17T22:26:16.236Z,12.90
2018-05-17T22:28:47.131Z,12.90
2018-05-17T22:31:17.294Z,12.70
2018-05-17T22:33:47.364Z,12.80
2018-05-17T22:36:17.567Z,12.80
2018-05-17T22:38:47.811Z,12.70
2018-05-17T22:41:19.202Z,12.80
2018-05-17T22:43:50.955Z,12.80
2018-05-17T22:46:21.080Z,12.70
2018-05-17T22:48:52.609Z,12.70
2018-05-17T22:51:22.382Z,12.70
2018-05-17T22:53:54.302Z,12.60
2018-05-17T22:56:33.273Z,12.60
2018-05-17T22:59:03.501Z,12.50
2018-05-17T23:01:33.627Z,12.50
2018-05-17T23:04:03.744Z,12.40
2018-05-17T23:06:34.590Z,12.40
2018-05-17T23:09:05.417Z,12.30
2018-05-17T23:11:35.551Z,12.30
2018-05-17T23:14:05.709Z,12.30
2018-05-17T23:16:35.783Z,12.20
2018-05-17T23:19:06.509Z,12.20
2018-05-17T23:21:36.629Z,12.20
2018-05-17T23:24:06.758Z,12.20
2018-05-17T23:26:36.872Z,12.10
2018-05-17T23:29:07.007Z,12.20
2018-05-17T23:31:37.114Z,12.10
2018-05-17T23:34:07.283Z,12.10
2018-05-17T23:36:37.967Z,12.00
2018-05-17T23:39:09.218Z,12.00
2018-05-17T23:41:46.398Z,12.00
2018-05-17T23:44:17.272Z,11.90
2018-05-17T23:46:47.756Z,11.90
2018-05-17T23:49:19.218Z,11.80
2018-05-17T23:51:50.408Z,11.80
2018-05-17T23:54:20.680Z,11.70
2018-05-17T23:56:52.132Z,11.70
2018-05-17T23:59:23.092Z,11.70
